Walla Walla, WA

8:39 AM PST on November 26, 2014 (GMT -0800)
Walla Walla Regional | Change Station
CLOSE
Current Station
Airport
Location: Walla Walla,
Elevation: 1204 ft
Nearby Weather Stations
Active Advisory: Special Statement

Elev 1204 ft 46.09 °N, 118.29 °W | Updated 46 minutes ago

Clear
Clear
54 °F
Feels Like 54 °F
N
12
Wind Variable Wind from South

Today
High -- | Low -- °F
--% Chance of Precip.
Yesterday
High -- | Low -- °F
Precip. -- in
7:08 AM 4:12 PM
Waxing Crescent, 21% visible
Pressure 30.21 in
Visibility 10.0 miles
Clouds Clear
Dew Point 42 °F
Humidity 64%
Rainfall 0.00 in
Snow Depth Not available.
UV 0 out of 12
Pollen 1.30 out of 12
Air Quality Not available.
Flu Activity Not available.
METAR KALW 261553Z 19010KT 10SM CLR 12/06 A3020 RMK AO2 SLP230 T01220056

More Conditions Fewer Conditions

Pressure 30.21 in
Visibility 10.0 miles
Clouds Clear
Dew Point 42 °F
Humidity 64%
Rainfall 0.00 in
Snow Depth Not available.
UV 0 out of 12
Pollen 1.30 out of 12
Air Quality Not available.
Flu Activity Not available.
METAR KALW 261553Z 19010KT 10SM CLR 12/06 A3020 RMK AO2 SLP230 T01220056

More Conditions Fewer Conditions

10-Day Weather Forecast

Almanac

Astronomy

Nov. 26, 2014 Rise Set
Actual Time
Civil Twilight
Nautical Twilight
Astronomical Twilight
Moon
Length of Visible Light
Length of Day
Tomorrow will be .
, % of the Moon is Illuminated

Today's Extremes

State Highs State Lows

Community

WunderPhotos

Upload Photos

1,773,789 photos uploaded!

WunderBlogs® & News

Nearby

Air Quality

  Air Quality AQ Index Pollutant
Not available.

Snow Depth

Station Depth Elevation

Earthquake Activity

City Distance Mag. Time & Date
Minimum magnitude displayed is 2.5.

Coastal Water Temperatures

Place Temperature

Nearby Weather Stations